Terminal Aerodrome Forecast
Issued by NWS

Home | Current Version | Previous Version | Text Only | Print | Product List | Glossary On
Versions: 1 2 3 4 5 6 7 8 9 10 11 12 13 14 15 16 17 18 19 20 21 22 23 24 25 26
000
FTUS46 KSEW 242100 AAA
TAFSEA
TAF AMD
KSEA 242102Z 2421/2524 22005KT P6SM BKN018 BKN040
     FM242200 23006KT P6SM BKN022 BKN040
     FM250200 27006KT P6SM BKN018 OVC040
     FM250500 VRB04KT P6SM OVC012
      TEMPO 2513/2517 -DZ OVC008
     FM252100 20005KT P6SM BKN025 BKN040=

USA.gov is the U.S. government's official web portal to all federal, state and local government web resources and services.